createdAt,value
2018-09-28T00:02:48.819Z,13.55
2018-09-28T00:05:52.326Z,13.55
2018-09-28T00:08:55.864Z,13.48
2018-09-28T00:11:59.330Z,13.46
2018-09-28T00:15:02.809Z,13.37
2018-09-28T00:18:06.489Z,13.33
2018-09-28T00:21:10.061Z,13.34
2018-09-28T00:24:13.542Z,13.39
2018-09-28T00:27:17.018Z,13.43
2018-09-28T00:30:20.513Z,13.43
2018-09-28T00:33:24.098Z,13.43
2018-09-28T00:36:27.622Z,13.43
2018-09-28T00:39:31.471Z,13.43
2018-09-28T00:42:34.970Z,13.41
2018-09-28T00:45:38.310Z,13.38
2018-09-28T00:48:41.774Z,13.40
2018-09-28T00:51:45.332Z,13.42
2018-09-28T00:54:48.902Z,13.42
2018-09-28T00:57:52.349Z,13.36
2018-09-28T01:00:55.982Z,13.36
2018-09-28T01:03:59.627Z,13.24
2018-09-28T01:07:03.056Z,13.22
2018-09-28T01:10:06.650Z,13.21
2018-09-28T01:13:10.081Z,13.22
2018-09-28T01:16:13.587Z,13.13
2018-09-28T01:19:17.074Z,12.96
2018-09-28T01:22:20.646Z,12.93
2018-09-28T01:25:24.107Z,12.91
2018-09-28T01:28:27.580Z,12.95
2018-09-28T01:31:31.431Z,12.96
2018-09-28T01:34:34.877Z,12.95
2018-09-28T01:37:38.361Z,12.94
2018-09-28T01:40:41.897Z,12.92
2018-09-28T01:43:45.558Z,12.83
2018-09-28T01:46:49.068Z,12.72
2018-09-28T01:49:52.664Z,12.78
2018-09-28T01:52:56.166Z,12.80
2018-09-28T01:55:59.628Z,12.75
2018-09-28T01:59:03.152Z,12.81
2018-09-28T02:02:06.681Z,12.90
2018-09-28T02:05:10.140Z,12.92
2018-09-28T02:08:13.671Z,12.90
2018-09-28T02:11:17.174Z,12.82
2018-09-28T02:14:20.694Z,12.85
2018-09-28T02:17:24.143Z,12.84
2018-09-28T02:20:27.623Z,12.86
2018-09-28T02:23:31.032Z,12.86
2018-09-28T02:26:34.457Z,12.85
2018-09-28T02:29:37.947Z,12.82
2018-09-28T02:32:41.448Z,12.82
2018-09-28T02:35:44.837Z,12.80
2018-09-28T02:38:48.305Z,12.83
2018-09-28T02:41:51.741Z,12.84
2018-09-28T02:44:55.341Z,12.83
2018-09-28T02:47:58.799Z,12.81
2018-09-28T02:51:02.330Z,12.77
2018-09-28T02:54:05.817Z,12.71
2018-09-28T02:57:09.371Z,12.65
2018-09-28T03:00:12.869Z,12.52
2018-09-28T03:03:16.583Z,12.46
2018-09-28T03:06:20.130Z,12.46
2018-09-28T03:09:23.637Z,12.49
2018-09-28T03:12:27.134Z,12.46
2018-09-28T03:15:30.561Z,12.37
2018-09-28T03:18:33.972Z,12.38
2018-09-28T03:21:37.399Z,12.39
2018-09-28T03:24:40.896Z,12.36
2018-09-28T03:27:44.390Z,12.34
2018-09-28T03:30:47.787Z,12.35
2018-09-28T03:33:51.179Z,12.34
2018-09-28T03:36:54.670Z,12.29
2018-09-28T03:39:58.115Z,12.20
2018-09-28T03:43:01.697Z,12.24
2018-09-28T03:46:05.103Z,12.26
2018-09-28T03:49:08.479Z,12.23
2018-09-28T03:52:11.899Z,12.15
2018-09-28T03:55:15.291Z,12.11
2018-09-28T03:58:18.800Z,12.14
2018-09-28T04:01:22.174Z,12.13
2018-09-28T04:04:25.574Z,12.10
2018-09-28T04:07:28.985Z,12.04
2018-09-28T04:10:32.394Z,11.90
2018-09-28T04:13:35.773Z,11.79
2018-09-28T04:16:39.188Z,11.71
2018-09-28T04:19:42.599Z,11.63
2018-09-28T04:22:46.012Z,11.56
2018-09-28T04:25:49.430Z,11.47
2018-09-28T04:28:53.219Z,11.49
2018-09-28T04:31:56.618Z,11.52
2018-09-28T04:35:00.008Z,11.54
2018-09-28T04:38:03.576Z,11.49
2018-09-28T04:41:07.040Z,11.51
2018-09-28T04:44:10.820Z,11.53
2018-09-28T04:47:14.218Z,11.45
2018-09-28T04:50:17.711Z,11.48
2018-09-28T04:53:21.972Z,11.54
2018-09-28T04:56:25.585Z,11.55
2018-09-28T04:59:29.253Z,11.56
2018-09-28T05:02:32.853Z,11.55
2018-09-28T05:05:36.396Z,11.56
2018-09-28T05:08:39.959Z,11.51
2018-09-28T05:11:43.505Z,11.50
2018-09-28T05:14:47.276Z,11.52
2018-09-28T05:17:50.829Z,11.55
2018-09-28T05:20:55.354Z,11.58
2018-09-28T05:23:58.791Z,11.59
2018-09-28T05:27:02.513Z,11.63
2018-09-28T05:30:06.103Z,11.66
2018-09-28T05:33:09.842Z,11.63
2018-09-28T05:36:13.474Z,11.48
2018-09-28T05:39:17.030Z,11.48
2018-09-28T05:42:20.548Z,11.49
2018-09-28T05:45:24.051Z,11.54
2018-09-28T05:48:27.546Z,11.57
2018-09-28T05:51:31.213Z,11.56
2018-09-28T05:54:34.636Z,11.58
2018-09-28T05:57:38.160Z,11.57
2018-09-28T06:00:46.952Z,11.51
2018-09-28T06:03:56.912Z,11.51
2018-09-28T06:07:00.497Z,11.59
2018-09-28T06:10:04.097Z,11.59
2018-09-28T06:13:07.951Z,11.60
2018-09-28T06:16:11.557Z,11.64
2018-09-28T06:19:15.258Z,11.69
2018-09-28T06:22:19.897Z,11.75
2018-09-28T06:25:23.456Z,11.80
2018-09-28T06:28:27.049Z,11.85
2018-09-28T06:31:30.481Z,11.87
2018-09-28T06:34:34.036Z,11.92
2018-09-28T06:37:37.518Z,12.01
2018-09-28T06:40:41.005Z,12.07
2018-09-28T06:43:44.610Z,12.06
2018-09-28T06:46:48.109Z,12.15
2018-09-28T06:49:51.662Z,12.21
2018-09-28T06:52:55.119Z,12.24
2018-09-28T06:55:58.638Z,12.33
2018-09-28T06:59:02.209Z,12.40
2018-09-28T07:02:05.766Z,12.42
2018-09-28T07:05:09.292Z,12.43
2018-09-28T07:08:12.906Z,12.68
2018-09-28T07:11:16.656Z,12.88
2018-09-28T07:14:20.169Z,13.05
2018-09-28T07:17:23.619Z,13.11
2018-09-28T07:20:27.177Z,13.23
2018-09-28T07:23:30.660Z,13.23
2018-09-28T07:26:34.210Z,13.29
2018-09-28T07:29:37.634Z,13.44
2018-09-28T07:32:41.051Z,13.42
2018-09-28T07:35:44.626Z,13.55
2018-09-28T07:38:48.223Z,13.54
2018-09-28T07:41:51.757Z,13.73
2018-09-28T07:44:55.242Z,13.90
2018-09-28T07:47:58.701Z,14.02
2018-09-28T07:51:02.197Z,14.04
2018-09-28T07:54:05.684Z,14.10
2018-09-28T07:57:09.210Z,13.98
2018-09-28T08:00:12.700Z,14.12
2018-09-28T08:03:16.173Z,14.33
2018-09-28T08:06:19.621Z,14.59
2018-09-28T08:09:23.190Z,14.60
2018-09-28T08:12:26.724Z,14.75
2018-09-28T08:15:30.172Z,14.91
2018-09-28T08:18:33.735Z,15.14
2018-09-28T08:21:37.441Z,15.43
2018-09-28T08:24:41.216Z,15.35
2018-09-28T08:27:44.652Z,15.43
2018-09-28T08:30:48.187Z,15.51
2018-09-28T08:33:51.824Z,15.63
2018-09-28T08:36:55.420Z,15.61
2018-09-28T08:39:58.856Z,15.67
2018-09-28T08:43:02.366Z,15.72
2018-09-28T08:46:05.905Z,15.74
2018-09-28T08:49:09.513Z,15.86
2018-09-28T08:52:14.034Z,15.99
2018-09-28T08:55:18.908Z,16.08
2018-09-28T08:58:22.407Z,16.16
2018-09-28T09:01:26.035Z,16.28
2018-09-28T09:04:29.902Z,16.35
2018-09-28T09:07:34.588Z,16.44
2018-09-28T09:10:38.056Z,16.53
2018-09-28T09:13:41.643Z,16.68
2018-09-28T09:16:45.062Z,16.76
2018-09-28T09:19:48.588Z,16.92
2018-09-28T09:22:52.058Z,17.26
2018-09-28T09:25:55.440Z,17.23
2018-09-28T09:28:58.837Z,17.26
2018-09-28T09:32:02.395Z,17.36
2018-09-28T09:35:05.998Z,17.48
2018-09-28T09:38:09.328Z,17.37
2018-09-28T09:41:14.659Z,17.55
2018-09-28T09:44:18.082Z,17.96
2018-09-28T09:47:21.667Z,18.23
2018-09-28T09:50:25.093Z,18.27
2018-09-28T09:53:28.587Z,18.20
2018-09-28T09:56:32.008Z,18.40
2018-09-28T09:59:35.385Z,18.53
2018-09-28T10:02:44.315Z,18.65
2018-09-28T10:05:48.063Z,18.67
2018-09-28T10:08:52.051Z,18.68
2018-09-28T10:11:55.435Z,18.81
2018-09-28T10:14:58.855Z,18.84
2018-09-28T10:18:02.237Z,18.80
2018-09-28T10:21:06.055Z,18.85
2018-09-28T10:24:09.469Z,19.00
2018-09-28T10:27:12.888Z,19.06
2018-09-28T10:30:16.254Z,19.18
2018-09-28T10:33:19.858Z,19.28
2018-09-28T10:36:24.317Z,19.47
2018-09-28T10:39:27.728Z,19.54
2018-09-28T10:42:31.083Z,19.52
2018-09-28T10:45:34.598Z,19.60
2018-09-28T10:48:38.078Z,19.79
2018-09-28T10:51:41.644Z,19.92
2018-09-28T10:54:45.252Z,19.99
2018-09-28T10:57:49.104Z,20.09
2018-09-28T11:00:52.584Z,20.15
2018-09-28T11:03:56.023Z,20.20
2018-09-28T11:07:00.063Z,20.37
2018-09-28T11:10:03.623Z,20.40
2018-09-28T11:13:08.171Z,20.49
2018-09-28T11:16:12.322Z,20.67
2018-09-28T11:19:15.882Z,20.69
2018-09-28T11:22:19.652Z,20.57
2018-09-28T11:25:24.264Z,20.68
2018-09-28T11:28:28.016Z,20.81
2018-09-28T11:31:31.510Z,20.84
2018-09-28T11:34:35.047Z,20.98
2018-09-28T11:37:38.752Z,20.96
2018-09-28T11:40:42.201Z,21.03
2018-09-28T11:43:45.785Z,21.10
2018-09-28T11:46:50.093Z,20.89
2018-09-28T11:49:53.595Z,20.85
2018-09-28T11:52:57.142Z,20.91
2018-09-28T11:56:00.637Z,21.01
2018-09-28T11:59:04.252Z,21.06
2018-09-28T12:02:08.581Z,21.08
2018-09-28T12:05:12.229Z,21.23
2018-09-28T12:08:15.798Z,21.37
2018-09-28T12:11:19.396Z,21.21
2018-09-28T12:14:22.931Z,21.26
2018-09-28T12:17:26.441Z,21.28
2018-09-28T12:20:29.871Z,21.20
2018-09-28T12:23:33.309Z,21.03
2018-09-28T12:26:36.745Z,21.37
2018-09-28T12:29:40.478Z,21.52
2018-09-28T12:32:43.956Z,21.52
2018-09-28T12:35:47.324Z,21.44
2018-09-28T12:38:50.753Z,21.54
2018-09-28T12:41:54.159Z,21.49
2018-09-28T12:44:57.667Z,21.49
2018-09-28T12:48:01.114Z,21.48
2018-09-28T12:51:04.555Z,21.55
2018-09-28T12:54:07.981Z,21.63
2018-09-28T12:57:11.472Z,21.59
2018-09-28T13:00:14.914Z,21.55
2018-09-28T13:03:18.375Z,21.47
2018-09-28T13:06:21.861Z,21.54
2018-09-28T13:09:25.272Z,21.62
2018-09-28T13:12:28.696Z,21.55
2018-09-28T13:15:32.175Z,21.63
2018-09-28T13:18:35.721Z,21.64
2018-09-28T13:21:39.228Z,21.62
2018-09-28T13:24:42.819Z,21.59
2018-09-28T13:27:46.258Z,21.59
2018-09-28T13:30:49.880Z,21.69
2018-09-28T13:33:53.267Z,21.73
2018-09-28T13:36:56.706Z,21.82
2018-09-28T13:40:00.144Z,21.87
2018-09-28T13:43:03.615Z,21.83
2018-09-28T13:46:07.450Z,21.77
2018-09-28T13:49:10.919Z,21.83
2018-09-28T13:52:14.453Z,21.80
2018-09-28T13:55:17.800Z,21.92
2018-09-28T13:58:21.206Z,22.05
2018-09-28T14:01:24.626Z,22.24
2018-09-28T14:04:28.235Z,22.28
2018-09-28T14:07:31.513Z,22.25
2018-09-28T14:10:34.919Z,22.34
2018-09-28T14:13:38.368Z,22.49
2018-09-28T14:16:41.827Z,22.36
2018-09-28T14:19:45.191Z,22.30
2018-09-28T14:22:48.636Z,22.39
2018-09-28T14:25:52.042Z,22.49
2018-09-28T14:28:55.461Z,22.65
2018-09-28T14:31:58.790Z,22.81
2018-09-28T14:35:02.386Z,22.85
2018-09-28T14:38:06.922Z,22.83
2018-09-28T14:41:10.376Z,22.52
2018-09-28T14:44:13.772Z,22.46
2018-09-28T14:47:17.192Z,22.36
2018-09-28T14:50:20.758Z,22.42
2018-09-28T14:53:24.241Z,22.29
2018-09-28T14:56:27.759Z,22.53
2018-09-28T14:59:31.130Z,22.42
2018-09-28T15:02:34.652Z,22.05
2018-09-28T15:05:38.141Z,21.74
2018-09-28T15:08:41.695Z,21.55
2018-09-28T15:11:45.307Z,21.51
2018-09-28T15:14:49.123Z,21.55
2018-09-28T15:17:52.900Z,21.59
2018-09-28T15:20:56.631Z,21.64
2018-09-28T15:24:00.375Z,21.63
2018-09-28T15:27:03.963Z,21.30
2018-09-28T15:30:08.481Z,21.07
2018-09-28T15:36:49.855Z,20.60
2018-09-28T15:39:53.517Z,20.49
2018-09-28T15:42:57.115Z,20.47
2018-09-28T15:46:00.727Z,20.37
2018-09-28T15:49:04.149Z,20.36
2018-09-28T15:52:07.641Z,20.23
2018-09-28T15:55:11.156Z,20.04
2018-09-28T15:58:14.827Z,19.92
2018-09-28T16:01:18.337Z,19.74
2018-09-28T16:04:21.851Z,19.40
2018-09-28T16:07:25.361Z,19.07
2018-09-28T16:10:28.735Z,19.00
2018-09-28T16:13:32.152Z,18.80
2018-09-28T16:16:35.563Z,18.72
2018-09-28T16:19:39.018Z,18.59
2018-09-28T16:22:42.448Z,18.49
2018-09-28T16:25:45.832Z,18.38
2018-09-28T16:28:49.321Z,18.26
2018-09-28T16:35:31.136Z,18.12
2018-09-28T16:38:34.709Z,18.01
2018-09-28T16:41:38.184Z,17.72
2018-09-28T16:44:41.798Z,17.48
2018-09-28T16:47:45.253Z,17.29
2018-09-28T16:50:48.675Z,17.09
2018-09-28T16:53:52.181Z,17.01
2018-09-28T16:56:55.866Z,16.89
2018-09-28T16:59:59.283Z,16.75
2018-09-28T17:03:02.711Z,16.58
2018-09-28T17:06:06.151Z,16.53
2018-09-28T17:09:10.445Z,16.47
2018-09-28T17:12:13.989Z,16.38
2018-09-28T17:15:17.445Z,16.26
2018-09-28T17:18:20.893Z,16.17
2018-09-28T17:21:24.566Z,16.18
2018-09-28T17:24:27.969Z,16.07
2018-09-28T17:27:31.384Z,15.99
2018-09-28T17:30:34.870Z,15.93
2018-09-28T17:33:38.290Z,15.79
2018-09-28T17:36:41.675Z,15.71
2018-09-28T17:39:45.058Z,15.66
2018-09-28T17:42:48.708Z,15.59
2018-09-28T17:45:52.280Z,15.57
2018-09-28T17:48:55.885Z,15.45
2018-09-28T17:51:59.388Z,15.35
2018-09-28T17:55:02.889Z,15.16
2018-09-28T17:58:06.545Z,15.15
2018-09-28T18:01:10.022Z,14.97
2018-09-28T18:04:13.533Z,14.87
2018-09-28T18:07:17.105Z,14.87
2018-09-28T18:10:20.608Z,14.91
2018-09-28T18:13:24.189Z,14.96
2018-09-28T18:16:27.713Z,14.87
2018-09-28T18:19:31.203Z,14.82
2018-09-28T18:22:35.758Z,14.91
2018-09-28T18:25:39.138Z,14.94
2018-09-28T18:28:42.724Z,14.91
2018-09-28T18:31:46.247Z,14.96
2018-09-28T18:34:49.734Z,14.86
2018-09-28T18:37:53.245Z,14.78
2018-09-28T18:40:56.764Z,14.75
2018-09-28T18:44:00.279Z,14.78
2018-09-28T18:47:03.765Z,14.79
2018-09-28T18:50:07.275Z,14.82
2018-09-28T18:53:10.762Z,14.78
2018-09-28T18:56:14.391Z,14.82
2018-09-28T18:59:17.954Z,14.85
2018-09-28T19:02:21.365Z,14.86
2018-09-28T19:05:24.863Z,14.79
2018-09-28T19:08:28.389Z,14.84
2018-09-28T19:11:31.877Z,14.92
2018-09-28T19:14:35.378Z,14.98
2018-09-28T19:17:39.001Z,15.03
2018-09-28T19:20:42.591Z,15.08
2018-09-28T19:23:46.096Z,15.07
2018-09-28T19:26:49.620Z,15.08
2018-09-28T19:29:53.120Z,15.05
2018-09-28T19:32:57.011Z,15.01
2018-09-28T19:36:00.563Z,15.02
2018-09-28T19:39:04.759Z,15.07
2018-09-28T19:42:08.368Z,15.06
2018-09-28T19:45:11.845Z,15.03
2018-09-28T19:48:15.494Z,15.03
2018-09-28T19:51:18.986Z,15.04
2018-09-28T19:54:22.433Z,15.10
2018-09-28T19:57:26.040Z,15.04
2018-09-28T20:00:29.811Z,15.03
2018-09-28T20:03:33.356Z,15.06
2018-09-28T20:06:37.207Z,15.07
2018-09-28T20:09:40.675Z,15.06
2018-09-28T20:12:44.450Z,15.00
2018-09-28T20:15:48.248Z,15.00
2018-09-28T20:18:51.789Z,15.03
2018-09-28T20:21:55.260Z,15.10
2018-09-28T20:24:58.746Z,15.16
2018-09-28T20:28:02.325Z,15.12
2018-09-28T20:31:06.075Z,15.11
2018-09-28T20:34:09.587Z,15.12
2018-09-28T20:37:13.164Z,15.16
2018-09-28T20:40:16.673Z,15.15
2018-09-28T20:43:20.200Z,15.20
2018-09-28T20:46:23.791Z,15.28
2018-09-28T20:49:27.296Z,15.27
2018-09-28T20:52:30.866Z,15.19
2018-09-28T20:55:34.448Z,15.11
2018-09-28T20:58:37.952Z,15.12
2018-09-28T21:01:41.920Z,15.17
2018-09-28T21:04:45.425Z,15.15
2018-09-28T21:07:49.970Z,15.13
2018-09-28T21:10:53.382Z,15.03
2018-09-28T21:13:56.787Z,15.04
2018-09-28T21:17:00.232Z,15.02
2018-09-28T21:20:04.851Z,15.00
2018-09-28T21:23:08.369Z,14.95
2018-09-28T21:26:11.907Z,14.95
2018-09-28T21:29:15.305Z,14.97
2018-09-28T21:32:19.918Z,15.04
2018-09-28T21:35:23.497Z,15.10
2018-09-28T21:38:27.153Z,15.07
2018-09-28T21:41:30.557Z,15.10
2018-09-28T21:44:33.944Z,15.06
2018-09-28T21:47:37.349Z,14.99
2018-09-28T21:50:40.779Z,14.99
2018-09-28T21:53:44.128Z,15.01
2018-09-28T21:56:47.540Z,15.01
2018-09-28T21:59:50.973Z,15.00
2018-09-28T22:02:54.337Z,14.99
2018-09-28T22:05:57.746Z,14.92
2018-09-28T22:09:01.214Z,14.88
2018-09-28T22:12:05.561Z,14.91
2018-09-28T22:15:09.102Z,14.92
2018-09-28T22:18:12.463Z,14.94
2018-09-28T22:21:15.950Z,14.95
2018-09-28T22:24:19.368Z,14.95
2018-09-28T22:27:22.769Z,14.90
2018-09-28T22:30:26.174Z,14.83
2018-09-28T22:33:29.571Z,14.68
2018-09-28T22:36:32.961Z,14.66
2018-09-28T22:39:36.481Z,14.68
2018-09-28T22:42:39.867Z,14.62
2018-09-28T22:45:43.272Z,14.65
2018-09-28T22:48:46.682Z,14.58
2018-09-28T22:51:50.127Z,14.56
2018-09-28T22:54:53.467Z,14.52
2018-09-28T22:57:56.866Z,14.54
2018-09-28T23:01:00.268Z,14.55
2018-09-28T23:04:03.669Z,14.55
2018-09-28T23:07:08.530Z,14.53
2018-09-28T23:10:11.961Z,14.52
2018-09-28T23:13:15.329Z,14.50
2018-09-28T23:16:18.759Z,14.51
2018-09-28T23:19:22.097Z,14.45
2018-09-28T23:22:25.516Z,14.44
2018-09-28T23:25:29.000Z,14.44
2018-09-28T23:28:32.588Z,14.40
2018-09-28T23:31:36.147Z,14.35
2018-09-28T23:34:39.633Z,14.36
2018-09-28T23:37:43.143Z,14.25
2018-09-28T23:40:46.634Z,14.24
2018-09-28T23:43:50.116Z,14.23
2018-09-28T23:46:53.617Z,14.20
2018-09-28T23:49:57.145Z,14.13
2018-09-28T23:53:00.669Z,14.11
2018-09-28T23:56:04.195Z,14.11
2018-09-28T23:59:07.799Z,14.09
